Time;durP1;ratioP1;P1;durP2;ratioP2;P2;SDS_P1;SDS_P2;PMS_P1;PMS_P2;Temp;Humidity;BMP_temperature;BMP_pressure;BME280_temperature;BME280_humidity;BME280_pressure;Samples;Min_cycle;Max_cycle;Signal;HPM_P1;HPM_P2
2021/10/11 00:00:14;;;;;;;7.47;5.10;;;2.80;90.00;;;;;;5025225;28;20029;-67
2021/10/11 00:02:40;;;;;;;7.65;4.25;;;2.70;90.40;;;;;;5025398;28;20477;-67
2021/10/11 00:05:06;;;;;;;9.57;5.90;;;2.70;91.00;;;;;;5022564;28;20368;-67
2021/10/11 00:07:32;;;;;;;9.25;6.43;;;2.70;90.90;;;;;;5022374;28;20026;-67
2021/10/11 00:09:58;;;;;;;9.15;6.18;;;2.70;90.80;;;;;;5024448;28;20106;-67
2021/10/11 00:12:24;;;;;;;8.32;5.35;;;2.70;90.90;;;;;;5026425;28;20022;-67
2021/10/11 00:14:52;;;;;;;10.20;5.75;;;2.70;91.10;;;;;;5024035;28;20030;-68
2021/10/11 00:17:17;;;;;;;10.23;6.47;;;2.60;91.60;;;;;;5023103;28;20068;-66
2021/10/11 00:19:43;;;;;;;8.90;5.43;;;2.70;91.00;;;;;;5036756;28;20061;-66
2021/10/11 00:22:09;;;;;;;7.88;5.70;;;2.70;90.80;;;;;;5025328;28;20091;-66
2021/10/11 00:24:35;;;;;;;9.43;4.82;;;2.60;90.60;;;;;;5024590;28;20032;-67
2021/10/11 00:27:00;;;;;;;10.48;5.47;;;2.60;90.00;;;;;;5020011;28;20139;-67
2021/10/11 00:29:26;;;;;;;6.65;4.47;;;2.50;90.00;;;;;;5025799;28;20037;-67
2021/10/11 00:31:52;;;;;;;7.05;4.35;;;2.50;90.50;;;;;;5022241;28;20127;-67
2021/10/11 00:34:17;;;;;;;7.15;5.07;;;2.50;90.60;;;;;;5024809;28;20045;-67
2021/10/11 00:36:43;;;;;;;8.93;5.63;;;2.50;90.90;;;;;;5024894;28;20043;-67
2021/10/11 00:39:08;;;;;;;6.85;4.80;;;2.50;90.70;;;;;;5021937;28;20482;-66
2021/10/11 00:41:34;;;;;;;7.07;5.63;;;2.40;90.30;;;;;;5022734;28;20441;-67
2021/10/11 00:44:01;;;;;;;7.07;4.90;;;2.40;90.60;;;;;;5037403;28;20405;-66
2021/10/11 00:46:27;;;;;;;7.38;5.07;;;2.40;90.70;;;;;;5024130;28;20096;-66
2021/10/11 00:48:52;;;;;;;7.60;6.30;;;2.30;90.60;;;;;;5024876;28;20133;-67
2021/10/11 00:51:18;;;;;;;9.40;5.88;;;2.30;91.10;;;;;;5022893;28;20025;-67
2021/10/11 00:53:44;;;;;;;10.68;5.95;;;2.20;91.30;;;;;;5023179;28;21218;-67
2021/10/11 00:56:10;;;;;;;10.02;5.93;;;2.20;91.20;;;;;;5024775;28;20033;-67
2021/10/11 00:58:35;;;;;;;8.88;5.07;;;2.10;91.70;;;;;;5022982;28;20436;-67
2021/10/11 01:01:01;;;;;;;12.60;6.80;;;2.20;91.40;;;;;;5023776;28;20121;-67
2021/10/11 01:03:27;;;;;;;8.23;6.22;;;2.20;91.00;;;;;;5025152;28;20508;-67
2021/10/11 01:05:53;;;;;;;9.57;6.03;;;2.20;90.70;;;;;;5022389;28;20032;-67
2021/10/11 01:08:19;;;;;;;9.88;5.38;;;2.10;90.00;;;;;;5025086;28;20029;-67
2021/10/11 01:10:47;;;;;;;9.10;5.13;;;2.10;90.30;;;;;;5025251;28;20402;-67
2021/10/11 01:13:13;;;;;;;10.43;6.47;;;2.10;90.10;;;;;;5022473;28;20397;-67
2021/10/11 01:15:39;;;;;;;9.00;5.88;;;2.00;90.10;;;;;;5023097;28;20080;-67
2021/10/11 01:18:05;;;;;;;8.95;5.70;;;2.00;90.40;;;;;;5022258;28;20131;-68
2021/10/11 01:20:31;;;;;;;7.00;5.22;;;2.00;90.40;;;;;;5022832;28;20048;-67
2021/10/11 01:22:57;;;;;;;12.82;6.70;;;2.00;90.70;;;;;;5021647;28;20021;-67
2021/10/11 01:25:22;;;;;;;10.20;6.47;;;2.00;91.60;;;;;;5019215;28;20112;-67
2021/10/11 01:27:49;;;;;;;16.75;7.10;;;2.00;91.80;;;;;;5022965;28;20056;-67
2021/10/11 01:30:15;;;;;;;10.32;7.05;;;2.10;91.60;;;;;;5023435;28;20101;-67
2021/10/11 01:32:42;;;;;;;10.02;5.35;;;2.00;91.20;;;;;;5022496;28;20032;-68
2021/10/11 01:35:09;;;;;;;9.95;6.30;;;2.00;91.60;;;;;;5026463;28;20033;-67
2021/10/11 01:37:35;;;;;;;11.98;6.82;;;2.00;91.50;;;;;;5024472;28;20056;-67
2021/10/11 01:40:02;;;;;;;9.07;6.32;;;2.00;91.60;;;;;;5041628;28;20033;-67
2021/10/11 01:42:28;;;;;;;9.30;6.15;;;1.90;91.70;;;;;;5026540;28;20087;-68
2021/10/11 01:44:54;;;;;;;12.27;6.78;;;2.00;91.90;;;;;;5025459;28;20033;-67
2021/10/11 01:47:25;;;;;;;11.88;6.70;;;1.90;92.60;;;;;;5027579;28;20059;-67
2021/10/11 01:49:51;;;;;;;8.48;6.13;;;1.90;92.30;;;;;;5027283;28;21434;-68
2021/10/11 01:52:16;;;;;;;9.35;6.18;;;1.90;92.50;;;;;;5025627;28;20028;-67
2021/10/11 01:54:42;;;;;;;10.82;6.13;;;2.00;92.20;;;;;;5026661;28;20116;-67
2021/10/11 01:57:08;;;;;;;13.25;6.63;;;2.00;92.20;;;;;;5020087;28;20033;-67
2021/10/11 01:59:34;;;;;;;9.55;6.25;;;2.10;92.50;;;;;;5023458;28;20506;-67
2021/10/11 02:01:59;;;;;;;13.35;6.97;;;2.00;92.80;;;;;;5025450;28;20037;-67
2021/10/11 02:04:25;;;;;;;12.80;6.22;;;2.10;92.90;;;;;;5022129;28;20022;-68
2021/10/11 02:06:51;;;;;;;22.42;6.60;;;2.10;93.30;;;;;;5020853;28;20030;-68
2021/10/11 02:09:17;;;;;;;14.60;6.82;;;2.20;93.40;;;;;;5024777;28;20033;-67
2021/10/11 02:11:42;;;;;;;13.25;7.10;;;2.20;93.40;;;;;;5025563;28;20060;-67
2021/10/11 02:14:08;;;;;;;14.32;7.00;;;2.10;93.30;;;;;;5024647;28;20470;-67
2021/10/11 02:16:34;;;;;;;9.27;6.03;;;2.10;93.00;;;;;;5025217;28;20033;-67
2021/10/11 02:18:59;;;;;;;13.57;7.50;;;2.10;92.80;;;;;;5018771;28;20043;-67
2021/10/11 02:21:25;;;;;;;10.15;6.70;;;2.20;92.50;;;;;;5025503;28;20029;-67
2021/10/11 02:23:50;;;;;;;10.32;6.65;;;2.20;92.30;;;;;;5020596;28;20025;-67
2021/10/11 02:26:16;;;;;;;10.70;5.95;;;2.20;92.20;;;;;;5026458;28;20013;-67
2021/10/11 02:28:42;;;;;;;11.38;6.80;;;2.20;92.20;;;;;;5021756;28;20026;-67
2021/10/11 02:31:07;;;;;;;11.23;6.20;;;2.20;92.10;;;;;;5026005;28;22244;-67
2021/10/11 02:33:33;;;;;;;13.63;7.07;;;2.20;92.00;;;;;;5023485;28;20053;-67
2021/10/11 02:35:58;;;;;;;13.25;6.53;;;2.20;92.20;;;;;;5020948;28;20030;-67
2021/10/11 02:38:24;;;;;;;13.50;7.25;;;2.10;92.20;;;;;;5023162;28;20017;-67
2021/10/11 02:40:49;;;;;;;11.57;6.95;;;2.10;92.40;;;;;;5027474;28;20052;-67
2021/10/11 02:43:15;;;;;;;11.85;6.38;;;2.10;92.40;;;;;;5028902;28;20099;-67
2021/10/11 02:45:41;;;;;;;14.43;7.40;;;2.20;92.50;;;;;;5025520;28;20048;-67
2021/10/11 02:48:07;;;;;;;10.77;6.00;;;2.20;92.40;;;;;;5022661;28;20017;-67
2021/10/11 02:50:33;;;;;;;10.32;6.63;;;2.20;92.20;;;;;;5042218;28;20117;-67
2021/10/11 02:52:58;;;;;;;12.63;7.30;;;2.20;92.00;;;;;;5027500;28;20030;-67
2021/10/11 02:55:24;;;;;;;11.93;6.97;;;2.20;92.10;;;;;;5027082;28;20512;-67
2021/10/11 02:57:50;;;;;;;13.57;7.13;;;2.20;92.00;;;;;;5025883;28;20033;-67
2021/10/11 03:00:15;;;;;;;15.55;7.15;;;2.20;91.90;;;;;;5023550;28;20091;-67
2021/10/11 03:02:41;;;;;;;23.30;8.20;;;2.20;91.80;;;;;;5022110;28;20132;-67
2021/10/11 03:05:07;;;;;;;15.95;8.15;;;2.20;91.80;;;;;;5026192;28;20052;-67
2021/10/11 03:07:32;;;;;;;16.75;7.53;;;2.10;91.80;;;;;;5022920;28;22293;-67
2021/10/11 03:09:58;;;;;;;21.17;6.80;;;2.10;92.00;;;;;;5026224;28;20764;-67
2021/10/11 03:12:24;;;;;;;11.88;6.78;;;2.00;92.10;;;;;;5026595;28;20448;-67
2021/10/11 03:14:51;;;;;;;18.98;6.70;;;2.00;92.30;;;;;;5023852;28;20030;-67
2021/10/11 03:17:17;;;;;;;37.75;9.55;;;2.00;92.30;;;;;;5024189;28;20021;-67
2021/10/11 03:19:42;;;;;;;27.08;7.18;;;2.00;92.60;;;;;;5021233;28;20033;-69
2021/10/11 03:22:08;;;;;;;19.90;6.82;;;1.90;93.00;;;;;;5023241;28;20402;-67
2021/10/11 03:24:34;;;;;;;11.55;6.45;;;1.80;93.20;;;;;;5017479;28;20092;-67
2021/10/11 03:27:00;;;;;;;12.23;7.43;;;1.80;93.10;;;;;;5019078;28;20530;-67
2021/10/11 03:29:25;;;;;;;15.55;6.00;;;1.80;92.90;;;;;;5020265;28;20437;-67
2021/10/11 03:31:51;;;;;;;12.27;6.70;;;1.70;92.80;;;;;;5025872;28;20046;-67
2021/10/11 03:34:17;;;;;;;11.82;7.38;;;1.70;92.90;;;;;;5024760;28;20049;-67
2021/10/11 03:36:43;;;;;;;13.23;7.22;;;1.70;92.80;;;;;;5018408;28;20076;-67
2021/10/11 03:39:09;;;;;;;12.32;7.15;;;1.70;92.70;;;;;;5019152;28;20032;-67
2021/10/11 03:41:35;;;;;;;10.15;6.72;;;1.70;92.40;;;;;;5027061;28;20125;-67
2021/10/11 03:44:05;;;;;;;13.07;6.93;;;1.70;92.00;;;;;;5020319;28;20105;-67
2021/10/11 03:46:32;;;;;;;10.70;7.32;;;1.70;91.70;;;;;;5021166;28;20029;-67
2021/10/11 03:48:57;;;;;;;10.18;6.90;;;1.70;91.70;;;;;;5019470;28;20108;-67
2021/10/11 03:51:23;;;;;;;10.98;6.75;;;1.70;91.50;;;;;;5025764;28;20179;-68
2021/10/11 03:53:49;;;;;;;11.10;6.25;;;1.70;91.20;;;;;;5027394;28;20025;-67
2021/10/11 03:56:15;;;;;;;11.50;7.18;;;1.60;91.10;;;;;;5028024;28;20025;-68
2021/10/11 03:58:40;;;;;;;10.25;5.82;;;1.60;91.30;;;;;;5020571;28;20736;-67
2021/10/11 04:01:06;;;;;;;9.23;5.70;;;1.60;91.20;;;;;;5023653;28;20037;-67
2021/10/11 04:03:32;;;;;;;10.93;6.35;;;1.50;91.10;;;;;;5027228;28;20495;-67
2021/10/11 04:05:58;;;;;;;12.35;6.60;;;1.50;91.20;;;;;;5026412;28;20029;-68
2021/10/11 04:08:32;;;;;;;9.20;6.10;;;1.50;91.30;;;;;;5025929;28;20030;-68
2021/10/11 04:11:03;;;;;;;6.85;5.45;;;1.50;91.40;;;;;;5024568;28;21665;-67
2021/10/11 04:13:29;;;;;;;10.45;6.35;;;1.50;91.40;;;;;;5025694;28;20021;-67
2021/10/11 04:15:54;;;;;;;8.07;5.50;;;1.50;91.40;;;;;;5021102;28;20049;-67
2021/10/11 04:18:20;;;;;;;9.13;7.20;;;1.50;91.40;;;;;;5022889;28;20501;-67
2021/10/11 04:20:46;;;;;;;8.23;5.57;;;1.40;91.60;;;;;;5021427;28;20474;-67
2021/10/11 04:23:12;;;;;;;6.47;5.38;;;1.40;91.60;;;;;;5022746;28;20146;-67
2021/10/11 04:25:38;;;;;;;9.75;6.43;;;1.40;91.70;;;;;;5022850;28;20032;-67
2021/10/11 04:28:04;;;;;;;12.20;6.30;;;1.30;91.60;;;;;;5023101;28;20037;-67
2021/10/11 04:30:30;;;;;;;10.57;5.97;;;1.30;91.60;;;;;;5024517;28;20389;-67
2021/10/11 04:32:55;;;;;;;7.85;5.05;;;1.30;91.60;;;;;;5026292;28;20037;-67
2021/10/11 04:35:22;;;;;;;8.85;5.55;;;1.30;91.50;;;;;;5022838;28;22285;-67
2021/10/11 04:37:48;;;;;;;9.20;5.20;;;1.30;91.50;;;;;;5024133;28;20017;-67
2021/10/11 04:40:14;;;;;;;10.70;6.20;;;1.30;92.10;;;;;;5026546;28;20081;-67
2021/10/11 04:42:40;;;;;;;10.73;6.07;;;1.30;92.50;;;;;;5025895;28;20576;-67
2021/10/11 04:45:06;;;;;;;10.55;6.28;;;1.30;92.40;;;;;;5023757;28;20026;-67
2021/10/11 04:47:32;;;;;;;9.90;6.15;;;1.30;92.10;;;;;;5024806;28;20029;-67
2021/10/11 04:49:58;;;;;;;10.88;6.57;;;1.30;92.00;;;;;;5023362;28;20701;-67
2021/10/11 04:52:23;;;;;;;10.38;6.25;;;1.30;91.70;;;;;;5023268;28;20061;-67
2021/10/11 04:54:49;;;;;;;9.93;6.10;;;1.30;91.60;;;;;;5026763;28;20133;-67
2021/10/11 04:57:15;;;;;;;7.80;5.35;;;1.30;91.60;;;;;;5025282;28;20030;-67
2021/10/11 04:59:40;;;;;;;11.95;6.85;;;1.40;91.50;;;;;;5024832;28;20524;-67
2021/10/11 05:02:06;;;;;;;8.50;6.13;;;1.30;91.30;;;;;;5023898;28;20515;-67
2021/10/11 05:04:32;;;;;;;8.95;6.88;;;1.40;91.30;;;;;;5025855;28;20029;-67
2021/10/11 05:06:57;;;;;;;12.43;7.00;;;1.30;91.30;;;;;;5019762;28;20025;-67
2021/10/11 05:09:23;;;;;;;14.95;7.35;;;1.30;91.60;;;;;;5028174;28;20171;-67
2021/10/11 05:11:49;;;;;;;10.10;6.68;;;1.20;91.90;;;;;;5025809;28;20025;-67
2021/10/11 05:14:14;;;;;;;8.10;5.80;;;1.20;92.00;;;;;;5026411;28;20090;-67
2021/10/11 05:16:40;;;;;;;11.77;6.75;;;1.10;91.50;;;;;;5026818;28;20049;-67
2021/10/11 05:19:06;;;;;;;6.47;4.85;;;1.10;91.30;;;;;;5044340;28;20037;-67
2021/10/11 05:21:31;;;;;;;9.00;6.13;;;1.00;91.00;;;;;;5020611;28;20022;-67
2021/10/11 05:23:58;;;;;;;7.95;5.60;;;1.00;90.90;;;;;;5026255;28;20040;-66
2021/10/11 05:26:24;;;;;;;10.10;6.32;;;0.90;91.10;;;;;;5030730;28;20505;-67
2021/10/11 05:28:50;;;;;;;12.18;6.32;;;0.90;91.20;;;;;;5027181;28;20032;-68
2021/10/11 05:31:16;;;;;;;10.10;6.20;;;0.90;91.10;;;;;;5024130;28;20036;-67
2021/10/11 05:33:42;;;;;;;7.32;5.40;;;0.80;91.10;;;;;;5030277;28;20064;-67
2021/10/11 05:36:07;;;;;;;9.30;5.85;;;0.90;91.30;;;;;;5028635;28;20056;-67
2021/10/11 05:38:34;;;;;;;9.77;6.22;;;0.80;91.40;;;;;;5028711;28;20037;-67
2021/10/11 05:41:00;;;;;;;8.95;6.25;;;0.80;91.50;;;;;;5022556;28;20389;-67
2021/10/11 05:43:26;;;;;;;10.65;6.15;;;0.80;91.60;;;;;;5023168;28;20022;-67
2021/10/11 05:45:52;;;;;;;10.52;6.65;;;0.80;91.70;;;;;;5022636;28;22091;-67
2021/10/11 05:48:17;;;;;;;11.50;6.38;;;0.90;91.60;;;;;;5019551;28;20091;-67
2021/10/11 05:50:43;;;;;;;7.07;6.03;;;0.90;91.40;;;;;;5017985;28;20044;-67
2021/10/11 05:53:09;;;;;;;10.70;6.28;;;0.90;91.40;;;;;;5029152;28;20056;-67
2021/10/11 05:55:34;;;;;;;13.23;5.95;;;0.80;91.30;;;;;;5025554;28;20803;-67
2021/10/11 05:58:00;;;;;;;12.75;6.20;;;0.80;91.20;;;;;;5028093;28;20033;-67
2021/10/11 06:00:26;;;;;;;13.57;7.28;;;0.80;91.50;;;;;;5024793;28;20033;-66
2021/10/11 06:02:52;;;;;;;14.57;7.78;;;0.90;91.80;;;;;;5028188;28;20026;-67
2021/10/11 06:05:18;;;;;;;10.85;6.28;;;0.90;92.00;;;;;;5020480;28;21361;-68
2021/10/11 06:07:43;;;;;;;13.45;6.40;;;0.90;91.90;;;;;;5021809;28;20025;-67
2021/10/11 06:10:09;;;;;;;11.48;7.47;;;1.00;92.40;;;;;;5023410;28;20061;-67
2021/10/11 06:12:35;;;;;;;23.08;8.35;;;1.00;92.50;;;;;;5027416;28;20033;-67
2021/10/11 06:15:01;;;;;;;11.50;7.60;;;1.00;93.00;;;;;;5027771;28;20064;-69
2021/10/11 06:17:27;;;;;;;14.90;7.90;;;1.00;93.40;;;;;;5027008;28;20022;-68
2021/10/11 06:19:52;;;;;;;13.23;8.13;;;1.10;93.70;;;;;;5025839;28;20025;-68
2021/10/11 06:22:19;;;;;;;19.95;8.60;;;1.20;93.60;;;;;;5026840;28;20021;-67
2021/10/11 06:24:44;;;;;;;14.48;6.78;;;1.20;93.50;;;;;;5028865;28;20548;-67
2021/10/11 06:27:10;;;;;;;19.25;7.95;;;1.20;92.80;;;;;;5033294;28;20017;-68
2021/10/11 06:29:36;;;;;;;13.30;7.22;;;1.20;92.60;;;;;;5023769;28;20034;-67
2021/10/11 06:32:02;;;;;;;13.98;7.97;;;1.20;93.00;;;;;;5029438;28;20092;-67
2021/10/11 06:34:28;;;;;;;12.05;7.70;;;1.30;93.10;;;;;;5029351;28;20506;-67
2021/10/11 06:36:53;;;;;;;12.50;7.70;;;1.30;92.90;;;;;;5031480;28;20091;-67
2021/10/11 06:39:19;;;;;;;13.05;7.30;;;1.30;93.00;;;;;;5027367;28;20037;-68
2021/10/11 06:41:45;;;;;;;14.30;7.80;;;1.40;93.10;;;;;;5027519;28;20391;-68
2021/10/11 06:44:10;;;;;;;10.30;6.38;;;1.40;92.90;;;;;;5026685;28;20021;-69
2021/10/11 06:46:36;;;;;;;10.68;6.50;;;1.30;93.70;;;;;;5027712;28;20037;-68
2021/10/11 06:49:01;;;;;;;13.80;7.28;;;1.40;93.90;;;;;;5027959;28;20446;-68
2021/10/11 06:51:27;;;;;;;13.55;7.53;;;1.40;93.80;;;;;;5027767;28;20064;-68
2021/10/11 06:53:53;;;;;;;12.05;7.22;;;1.50;93.70;;;;;;5027821;28;20095;-68
2021/10/11 06:56:18;;;;;;;12.88;7.10;;;1.60;93.60;;;;;;5031990;28;20025;-68
2021/10/11 06:58:44;;;;;;;13.90;7.97;;;1.60;93.80;;;;;;5027780;28;20037;-67
2021/10/11 07:01:10;;;;;;;16.88;8.10;;;1.70;94.00;;;;;;5025883;28;20033;-67
2021/10/11 07:03:37;;;;;;;17.08;9.90;;;1.70;94.20;;;;;;5026641;28;20397;-66
2021/10/11 07:06:06;;;;;;;16.45;8.45;;;1.80;94.10;;;;;;5023897;28;20049;-67
2021/10/11 07:08:32;;;;;;;;;;;1.90;94.40;;;;;;5027614;28;20112;-67
2021/10/11 07:10:58;;;;;;;18.25;7.88;;;1.90;94.30;;;;;;5028133;28;20031;-67
2021/10/11 07:13:25;;;;;;;16.20;8.77;;;2.00;94.20;;;;;;5026096;28;20130;-67
2021/10/11 07:15:52;;;;;;;13.05;9.43;;;2.10;94.50;;;;;;5023156;28;20033;-67
2021/10/11 07:18:18;;;;;;;20.25;9.45;;;2.10;94.30;;;;;;5028882;28;20356;-67
2021/10/11 07:20:45;;;;;;;15.90;9.40;;;2.20;94.30;;;;;;5025508;28;20040;-67
2021/10/11 07:23:11;;;;;;;15.70;8.95;;;2.30;94.90;;;;;;5022780;28;20105;-68
2021/10/11 07:25:37;;;;;;;18.42;8.82;;;2.30;94.90;;;;;;5026117;28;20025;-68
2021/10/11 07:28:03;;;;;;;15.38;9.25;;;2.40;95.40;;;;;;5028203;28;20532;-68
2021/10/11 07:30:29;;;;;;;17.75;8.68;;;2.50;95.30;;;;;;5026718;28;20033;-68
2021/10/11 07:32:55;;;;;;;19.00;9.95;;;2.50;95.60;;;;;;5025917;28;20056;-68
2021/10/11 07:35:20;;;;;;;17.52;9.50;;;2.60;95.60;;;;;;5024372;28;20034;-68
2021/10/11 07:37:48;;;;;;;18.70;9.00;;;2.80;96.10;;;;;;5028210;28;20390;-68
2021/10/11 07:40:13;;;;;;;22.92;10.38;;;2.80;96.30;;;;;;5026260;28;20033;-68
2021/10/11 07:42:39;;;;;;;16.55;9.98;;;2.80;96.30;;;;;;5027057;28;20701;-68
2021/10/11 07:45:05;;;;;;;15.82;8.88;;;2.90;96.50;;;;;;5026397;28;20040;-68
2021/10/11 07:47:30;;;;;;;22.55;10.50;;;3.00;97.20;;;;;;5027996;28;20044;-68
2021/10/11 07:49:56;;;;;;;17.40;10.55;;;3.10;98.20;;;;;;5027573;28;20075;-68
2021/10/11 07:52:22;;;;;;;19.02;10.98;;;3.20;97.70;;;;;;5026480;28;20025;-68
2021/10/11 07:54:47;;;;;;;18.60;11.57;;;3.30;97.40;;;;;;5020742;28;20127;-68
2021/10/11 07:57:13;;;;;;;23.17;11.43;;;3.40;97.60;;;;;;5026585;28;20478;-68
2021/10/11 07:59:39;;;;;;;22.77;10.18;;;3.50;98.50;;;;;;5026534;28;20099;-68
2021/10/11 08:02:04;;;;;;;21.42;12.40;;;3.60;98.20;;;;;;5028326;28;20026;-68
2021/10/11 08:04:30;;;;;;;22.95;11.48;;;3.70;97.70;;;;;;5026592;28;20076;-68
2021/10/11 08:06:56;;;;;;;18.23;10.88;;;3.80;97.70;;;;;;5027104;28;20171;-68
2021/10/11 08:09:21;;;;;;;27.35;12.50;;;3.90;97.30;;;;;;5025945;28;20123;-68
2021/10/11 08:11:47;;;;;;;21.98;11.45;;;4.10;98.10;;;;;;5020717;28;20025;-68
2021/10/11 08:14:13;;;;;;;22.65;11.85;;;4.20;97.70;;;;;;5020230;28;20030;-68
2021/10/11 08:16:40;;;;;;;19.15;10.63;;;4.30;97.30;;;;;;5024983;28;20667;-68
2021/10/11 08:19:07;;;;;;;21.92;11.93;;;4.30;96.60;;;;;;5028910;28;20029;-68
2021/10/11 08:21:33;;;;;;;28.73;12.63;;;4.50;97.20;;;;;;5024832;28;20029;-68
2021/10/11 08:23:59;;;;;;;22.92;11.88;;;4.70;97.70;;;;;;5025588;28;20021;-68
2021/10/11 08:26:26;;;;;;;20.55;11.02;;;4.80;97.60;;;;;;5027244;28;20558;-69
2021/10/11 08:28:52;;;;;;;25.45;13.18;;;4.90;96.90;;;;;;5025294;28;20485;-68
2021/10/11 08:31:18;;;;;;;20.70;11.35;;;5.00;97.50;;;;;;5023068;28;20029;-68
2021/10/11 08:33:44;;;;;;;27.05;12.68;;;5.20;96.90;;;;;;5028551;28;20053;-68
2021/10/11 08:36:13;;;;;;;27.42;13.43;;;5.20;96.70;;;;;;5025940;28;20667;-68
2021/10/11 08:38:39;;;;;;;22.33;12.02;;;5.30;95.90;;;;;;5024932;28;20091;-69
2021/10/11 08:41:07;;;;;;;22.73;11.30;;;5.40;96.60;;;;;;5026749;28;20026;-69
2021/10/11 08:43:34;;;;;;;23.23;12.57;;;5.60;96.10;;;;;;5026794;28;20021;-68
2021/10/11 08:46:00;;;;;;;26.30;13.07;;;5.70;95.60;;;;;;5026554;28;20573;-68
2021/10/11 08:48:26;;;;;;;23.60;11.73;;;5.80;96.20;;;;;;5030583;28;20071;-68
2021/10/11 08:50:51;;;;;;;22.25;11.52;;;5.90;95.50;;;;;;5029625;28;20034;-68
2021/10/11 08:53:17;;;;;;;24.77;12.63;;;6.00;95.60;;;;;;5028913;28;20037;-68
2021/10/11 08:55:43;;;;;;;18.35;10.82;;;6.20;95.60;;;;;;5026893;28;20040;-68
2021/10/11 08:58:09;;;;;;;21.10;11.77;;;6.30;95.50;;;;;;5021432;28;20026;-68
2021/10/11 09:00:38;;;;;;;22.83;12.02;;;6.50;94.90;;;;;;5030614;28;20152;-68
2021/10/11 09:03:05;;;;;;;21.83;12.77;;;6.60;94.40;;;;;;5030327;28;20513;-68
2021/10/11 09:05:32;;;;;;;21.17;11.88;;;6.70;94.50;;;;;;5030260;28;20029;-68
2021/10/11 09:08:07;;;;;;;24.67;13.13;;;6.70;94.30;;;;;;5028173;28;20112;-68
2021/10/11 09:10:52;;;;;;;26.85;13.57;;;6.80;94.20;;;;;;5028198;28;20029;-68
2021/10/11 09:13:30;;;;;;;20.23;11.75;;;7.00;94.50;;;;;;5030425;28;20037;-68
2021/10/11 09:16:34;;;;;;;27.07;13.23;;;7.10;94.00;;;;;;5029785;28;20125;-68
2021/10/11 09:19:25;;;;;;;23.15;12.68;;;7.30;93.80;;;;;;5028069;28;20395;-68
2021/10/11 09:21:51;;;;;;;23.85;12.38;;;7.30;93.10;;;;;;5028975;28;20032;-69
2021/10/11 09:24:21;;;;;;;19.80;11.70;;;7.40;93.20;;;;;;5031191;28;20028;-69
2021/10/11 09:26:51;;;;;;;22.73;12.95;;;7.60;92.80;;;;;;5029747;28;20026;-68
2021/10/11 09:29:39;;;;;;;25.58;12.65;;;7.70;93.10;;;;;;5031837;28;20108;-68
2021/10/11 09:32:07;;;;;;;22.43;11.40;;;7.90;92.80;;;;;;5031121;28;20068;-68
2021/10/11 09:34:35;;;;;;;20.08;11.57;;;8.00;92.90;;;;;;5031996;28;20637;-68
2021/10/11 09:37:07;;;;;;;21.67;11.25;;;8.10;91.80;;;;;;5034274;28;20037;-68
2021/10/11 09:39:35;;;;;;;19.98;11.70;;;8.10;91.70;;;;;;5030446;28;20025;-68
2021/10/11 09:42:03;;;;;;;24.48;12.27;;;8.20;91.70;;;;;;5030718;28;20021;-68
2021/10/11 09:44:28;;;;;;;21.00;11.40;;;8.30;92.30;;;;;;5041603;28;20032;-68
2021/10/11 09:47:02;;;;;;;24.70;12.13;;;8.50;92.00;;;;;;5031624;28;20029;-68
2021/10/11 09:49:28;;;;;;;22.00;11.07;;;8.50;91.30;;;;;;5027361;28;20029;-68
2021/10/11 09:51:54;;;;;;;22.05;13.18;;;8.70;91.40;;;;;;5028118;28;20242;-69
2021/10/11 09:54:21;;;;;;;22.83;13.90;;;8.80;90.80;;;;;;5027942;28;20120;-68
2021/10/11 09:56:48;;;;;;;24.33;12.70;;;8.90;90.70;;;;;;5030800;28;20049;-68
2021/10/11 09:59:16;;;;;;;25.60;12.50;;;8.90;91.20;;;;;;5027474;28;20112;-69
2021/10/11 10:01:43;;;;;;;23.58;11.95;;;9.00;91.30;;;;;;5028581;28;20033;-67
2021/10/11 10:04:29;;;;;;;21.88;11.85;;;9.00;90.60;;;;;;5028764;28;20458;-66
2021/10/11 10:07:01;;;;;;;23.70;12.23;;;9.10;90.60;;;;;;5028953;28;20017;-67
2021/10/11 10:09:28;;;;;;;23.52;12.30;;;9.10;90.40;;;;;;5029542;28;20108;-67
2021/10/11 10:11:55;;;;;;;21.80;11.63;;;9.00;89.30;;;;;;5030302;28;20035;-68
2021/10/11 10:14:24;;;;;;;23.60;11.95;;;9.00;89.20;;;;;;5027156;28;20112;-68
2021/10/11 10:16:52;;;;;;;21.00;10.75;;;9.10;88.00;;;;;;5030392;28;20068;-67
2021/10/11 10:19:18;;;;;;;23.55;11.38;;;8.90;87.50;;;;;;5028040;28;20053;-67
2021/10/11 10:21:44;;;;;;;21.08;10.68;;;8.90;86.90;;;;;;5030395;28;20099;-67
2021/10/11 10:24:21;;;;;;;23.90;11.85;;;8.90;87.50;;;;;;5029864;28;20072;-67
2021/10/11 10:26:46;;;;;;;20.38;10.45;;;9.00;87.90;;;;;;5029384;28;20100;-67
2021/10/11 10:29:18;;;;;;;22.42;10.93;;;9.00;85.80;;;;;;5029624;28;20112;-67
2021/10/11 10:31:45;;;;;;;17.50;9.93;;;9.00;86.20;;;;;;5029298;28;20124;-67
2021/10/11 10:34:17;;;;;;;16.63;10.10;;;9.10;84.90;;;;;;5030003;28;20100;-67
2021/10/11 10:36:45;;;;;;;18.25;9.57;;;9.20;85.50;;;;;;5028578;28;20425;-67
2021/10/11 10:39:13;;;;;;;17.50;10.13;;;9.30;85.20;;;;;;5029049;28;20033;-67
2021/10/11 10:41:43;;;;;;;16.67;9.15;;;9.30;85.00;;;;;;5026176;28;20498;-67
2021/10/11 10:44:18;;;;;;;16.15;9.57;;;9.30;82.10;;;;;;5030027;28;20029;-67
2021/10/11 10:47:04;;;;;;;17.67;9.38;;;9.30;82.80;;;;;;5027283;28;20032;-68
2021/10/11 10:49:31;;;;;;;17.80;9.43;;;9.40;82.80;;;;;;5029341;28;20038;-68
2021/10/11 10:51:57;;;;;;;13.20;8.63;;;9.40;82.40;;;;;;5043480;28;20391;-66
2021/10/11 10:54:45;;;;;;;18.23;10.00;;;9.50;82.40;;;;;;5027546;28;20029;-67
2021/10/11 10:57:13;;;;;;;;;;;9.60;82.10;;;;;;5028135;28;20033;-67
2021/10/11 10:59:39;;;;;;;;;;;9.70;78.90;;;;;;5028972;28;19912;-67
2021/10/11 11:02:10;;;;;;;12.05;6.47;;;9.70;77.90;;;;;;5026287;28;19917;-67
2021/10/11 11:04:37;;;;;;;12.80;6.43;;;9.70;76.30;;;;;;5029348;28;20104;-67
2021/10/11 11:07:07;;;;;;;12.80;7.43;;;9.80;77.00;;;;;;5025024;28;20113;-67
2021/10/11 11:09:43;;;;;;;16.42;7.97;;;9.90;78.90;;;;;;5027146;28;20128;-68
2021/10/11 11:12:10;;;;;;;12.35;7.32;;;10.00;77.70;;;;;;5027600;28;20033;-68
2021/10/11 11:14:35;;;;;;;13.18;7.28;;;10.00;77.80;;;;;;5028391;28;20100;-67
2021/10/11 11:17:01;;;;;;;13.38;7.72;;;10.10;75.80;;;;;;5028200;28;20152;-67
2021/10/11 11:19:38;;;;;;;12.48;7.55;;;10.20;75.20;;;;;;5025463;28;20123;-68
2021/10/11 11:22:04;;;;;;;13.98;7.60;;;10.10;76.70;;;;;;5028000;28;20070;-67
2021/10/11 11:24:30;;;;;;;14.38;7.00;;;10.20;76.00;;;;;;5029205;28;20096;-67
2021/10/11 11:26:55;;;;;;;9.90;5.97;;;10.20;75.70;;;;;;5028690;28;20033;-68
2021/10/11 11:29:21;;;;;;;9.65;6.10;;;10.30;72.80;;;;;;5026661;28;20410;-67
2021/10/11 11:31:50;;;;;;;16.15;7.15;;;10.30;74.30;;;;;;5028528;28;20034;-67
2021/10/11 11:34:16;;;;;;;12.38;7.25;;;10.30;73.80;;;;;;5025331;28;20487;-68
2021/10/11 11:36:53;;;;;;;12.95;7.68;;;10.40;75.60;;;;;;5027930;28;20026;-67
2021/10/11 11:39:19;;;;;;;14.30;7.88;;;10.50;76.90;;;;;;5024953;28;20040;-68
2021/10/11 11:41:53;;;;;;;13.52;7.45;;;10.60;75.40;;;;;;5029053;28;20026;-67
2021/10/11 11:44:23;;;;;;;15.20;7.72;;;10.60;75.70;;;;;;5027929;28;20033;-67
2021/10/11 11:47:10;;;;;;;14.50;7.50;;;10.60;74.80;;;;;;5023229;28;20018;-67
2021/10/11 11:49:37;;;;;;;12.55;7.80;;;10.70;74.70;;;;;;5024783;28;20041;-67
2021/10/11 11:52:14;;;;;;;12.30;7.20;;;10.80;74.80;;;;;;5027818;28;20129;-67
2021/10/11 11:54:53;;;;;;;16.55;7.22;;;10.80;72.60;;;;;;5022838;28;20029;-67
2021/10/11 11:57:19;;;;;;;12.27;7.35;;;10.80;71.90;;;;;;5027603;28;20079;-67
2021/10/11 11:59:48;;;;;;;11.68;6.55;;;10.80;71.90;;;;;;5020807;28;20060;-67
2021/10/11 12:02:14;;;;;;;12.40;6.28;;;10.90;72.40;;;;;;5027602;28;20029;-67
2021/10/11 12:04:44;;;;;;;10.45;6.72;;;11.00;71.30;;;;;;5028194;28;20550;-67
2021/10/11 12:07:11;;;;;;;12.95;7.55;;;11.00;70.60;;;;;;5027453;28;20021;-67
2021/10/11 12:09:38;;;;;;;9.60;6.53;;;11.00;69.30;;;;;;5026964;28;20029;-67
2021/10/11 12:12:05;;;;;;;13.27;7.18;;;10.90;70.60;;;;;;5028494;28;20691;-67
2021/10/11 12:14:33;;;;;;;12.20;6.60;;;11.00;68.90;;;;;;5028058;28;20141;-67
2021/10/11 12:17:07;;;;;;;12.23;7.18;;;11.10;70.90;;;;;;5026533;28;20025;-67
2021/10/11 12:19:37;;;;;;;13.65;6.75;;;11.00;70.70;;;;;;5020508;28;20053;-67
2021/10/11 12:22:03;;;;;;;11.43;6.32;;;11.10;71.00;;;;;;5027944;28;20029;-67
2021/10/11 12:24:32;;;;;;;9.77;6.10;;;11.20;70.20;;;;;;5026601;28;20092;-67
2021/10/11 12:27:04;;;;;;;10.65;5.65;;;11.10;67.70;;;;;;5028058;28;20029;-68
2021/10/11 12:29:32;;;;;;;10.77;6.35;;;11.10;69.80;;;;;;5026035;28;20021;-67
2021/10/11 12:31:59;;;;;;;;;;;11.20;70.70;;;;;;5027890;28;20315;-67
2021/10/11 12:34:51;;;;;;;12.23;6.18;;;11.10;68.60;;;;;;5024807;28;20007;-67
2021/10/11 12:37:17;;;;;;;11.63;6.18;;;11.10;68.60;;;;;;5022084;28;20037;-67
2021/10/11 12:39:45;;;;;;;10.60;5.65;;;11.10;68.90;;;;;;5026929;28;20040;-67
2021/10/11 12:42:16;;;;;;;9.35;6.25;;;11.30;69.40;;;;;;5028007;28;20026;-68
2021/10/11 12:44:49;;;;;;;10.25;6.93;;;11.40;70.60;;;;;;5027076;28;20044;-68